Time;durP1;ratioP1;P1;durP2;ratioP2;P2;SDS_P1;SDS_P2;PMS_P1;PMS_P2;Temp;Humidity;BMP_temperature;BMP_pressure;BME280_temperature;BME280_humidity;BME280_pressure;Samples;Min_cycle;Max_cycle;Signal;HPM_P1;HPM_P2
2023/07/08 00:03:51;;;;;;;10.40;7.82;;;;;;;24.41;37.63;99150.09;7197555;40;20249;31
2023/07/08 00:09:25;;;;;;;9.50;6.75;;;;;;;24.44;37.18;99146.81;7299118;40;20256;31
2023/07/08 00:14:45;;;;;;;8.57;6.90;;;;;;;24.48;38.32;99144.41;7222214;40;20290;31
2023/07/08 00:20:32;;;;;;;10.10;7.20;;;;;;;24.26;38.80;99147.19;7226275;40;20265;31
2023/07/08 00:26:08;;;;;;;11.90;7.80;;;;;;;24.05;39.32;99151.53;7244083;40;20492;31
2023/07/08 00:31:31;;;;;;;12.35;7.35;;;;;;;24.19;38.22;99155.63;7253022;40;20430;31
2023/07/08 00:36:48;;;;;;;13.30;7.90;;;;;;;24.08;39.07;99156.56;7262549;40;20275;31
2023/07/08 00:42:28;;;;;;;15.15;12.27;;;;;;;24.08;39.19;99142.78;7273151;40;20252;31
2023/07/08 00:48:03;;;;;;;10.04;7.94;;;;;;;24.10;39.95;99159.88;7253190;40;20362;31
2023/07/08 00:53:39;;;;;;;9.30;6.55;;;;;;;23.88;39.94;99159.00;7274681;40;20314;31
2023/07/08 00:59:16;;;;;;;11.37;8.07;;;;;;;23.66;40.26;99152.63;7199109;40;20465;31
2023/07/08 01:04:48;;;;;;;11.25;8.23;;;;;;;23.74;39.74;99144.78;7152440;40;20302;31
2023/07/08 01:10:23;;;;;;;9.28;7.06;;;;;;;23.85;38.58;99147.69;7130435;40;20286;31
2023/07/08 01:15:59;;;;;;;9.54;7.06;;;;;;;23.93;38.36;99130.72;7158160;40;20257;31
2023/07/08 01:21:44;;;;;;;8.80;7.00;;;;;;;23.73;38.53;99126.63;7138638;40;20255;31
2023/07/08 01:27:21;;;;;;;9.60;6.60;;;;;;;23.73;38.76;99134.88;7125021;40;20255;31
2023/07/08 01:32:56;;;;;;;9.98;7.35;;;;;;;23.73;38.37;99136.78;7127619;40;20318;31
2023/07/08 01:38:31;;;;;;;10.63;6.72;;;;;;;23.71;39.09;99145.28;7151855;40;21259;31
2023/07/08 01:44:07;;;;;;;9.64;7.22;;;;;;;23.68;38.20;99134.78;7134519;40;20244;31
2023/07/08 01:49:42;;;;;;;9.56;6.50;;;;;;;23.65;38.50;99132.53;7225019;40;20273;31
2023/07/08 01:55:17;;;;;;;9.95;6.60;;;;;;;23.64;38.58;99132.81;7234992;40;20253;31
2023/07/08 02:06:53;;;;;;;8.50;6.55;;;;;;;23.47;39.17;99134.75;7253399;40;20265;31
2023/07/08 02:12:10;;;;;;;9.13;7.03;;;;;;;23.44;38.64;99135.22;7064642;40;20411;31
2023/07/08 02:17:43;;;;;;;9.20;6.92;;;;;;;23.36;38.97;99145.53;7284411;40;20387;31
2023/07/08 02:23:19;;;;;;;10.90;7.20;;;;;;;23.18;39.82;99140.28;7244596;40;20249;31
2023/07/08 02:28:54;;;;;;;10.15;7.22;;;;;;;23.15;39.18;99154.53;7255204;40;20269;31
2023/07/08 02:34:29;;;;;;;10.80;6.90;;;;;;;23.23;39.07;99151.38;7234098;40;20268;31
2023/07/08 02:40:03;;;;;;;9.50;6.90;;;;;;;23.22;38.70;99146.13;7235275;40;20451;31
2023/07/08 02:45:38;;;;;;;8.87;7.17;;;;;;;23.17;38.23;99144.12;7239841;40;20390;31
2023/07/08 02:51:16;;;;;;;10.80;6.53;;;;;;;23.01;39.13;99152.34;7146395;40;20287;31
2023/07/08 02:56:49;;;;;;;8.60;6.87;;;;;;;22.78;40.37;99145.91;7128920;40;20255;31
2023/07/08 03:02:09;;;;;;;9.43;7.10;;;;;;;22.67;40.39;99141.28;7125503;40;20347;31
2023/07/08 03:07:29;;;;;;;9.40;6.43;;;;;;;22.73;39.28;99154.03;7176070;40;20258;31
2023/07/08 03:13:05;;;;;;;9.13;6.78;;;;;;;22.70;39.93;99160.03;7233977;40;20335;31
2023/07/08 03:23:41;;;;;;;9.43;6.78;;;;;;;22.40;41.13;99168.50;7263206;40;21147;31
2023/07/08 03:29:14;;;;;;;8.77;6.87;;;;;;;22.23;41.06;99158.53;7229389;40;20398;31
2023/07/08 03:34:31;;;;;;;8.10;5.93;;;;;;;22.19;40.66;99149.94;7209001;40;20362;31
2023/07/08 03:39:49;;;;;;;9.93;6.40;;;;;;;22.32;40.24;99155.16;7251835;40;20244;31
2023/07/08 03:45:21;;;;;;;9.38;6.68;;;;;;;22.43;39.63;99156.19;7265102;40;20261;31
2023/07/08 03:50:56;;;;;;;9.88;6.40;;;;;;;22.53;39.71;99172.03;7214903;40;20254;31
2023/07/08 03:56:31;;;;;;;8.18;6.40;;;;;;;22.64;39.58;99173.91;7160673;40;20255;31
2023/07/08 04:02:02;;;;;;;7.70;6.62;;;;;;;22.71;40.11;99169.13;7173053;40;20254;31
2023/07/08 04:07:22;;;;;;;10.85;6.37;;;;;;;22.66;40.69;99175.34;7184298;40;20371;31
2023/07/08 04:12:42;;;;;;;11.40;6.70;;;;;;;22.48;41.71;99164.53;7243027;40;20258;31
2023/07/08 04:18:15;;;;;;;8.82;6.70;;;;;;;22.36;41.74;99175.56;7259183;40;20431;31
2023/07/08 04:23:35;;;;;;;7.72;6.18;;;;;;;22.36;41.68;99161.81;7198440;40;20264;31
2023/07/08 04:28:53;;;;;;;8.33;6.60;;;;;;;22.34;42.19;99160.38;7250752;40;20273;31
2023/07/08 04:39:33;;;;;;;8.50;6.80;;;;;;;22.35;41.65;99168.38;7313700;39;21399;31
2023/07/08 04:44:54;;;;;;;9.30;6.70;;;;;;;22.45;41.53;99176.84;7263396;40;20245;31
2023/07/08 04:50:29;;;;;;;8.70;6.50;;;;;;;22.66;42.06;99177.25;7295887;40;20257;31
2023/07/08 04:56:03;;;;;;;8.82;6.62;;;;;;;22.67;41.64;99190.75;7219977;40;20274;31
2023/07/08 05:06:24;;;;;;;10.95;6.85;;;;;;;22.59;43.11;99226.03;7195652;40;21300;31
2023/07/08 05:11:56;;;;;;;10.25;6.72;;;;;;;22.67;43.41;99261.34;7199688;40;20276;31
2023/07/08 05:22:32;;;;;;;10.10;6.55;;;;;;;22.73;44.94;99282.41;7274177;40;21263;31
2023/07/08 05:33:09;;;;;;;10.55;7.03;;;;;;;22.86;44.72;99293.13;7272815;39;21179;31
2023/07/08 05:43:34;;;;;;;10.75;6.82;;;;;;;22.99;45.41;99311.25;7249085;40;20276;31
2023/07/08 05:49:09;;;;;;;8.45;6.40;;;;;;;22.92;48.28;99311.38;7274297;40;20260;31
2023/07/08 05:54:44;;;;;;;9.33;6.60;;;;;;;22.82;48.09;99320.25;7242332;40;20347;31
2023/07/08 06:00:16;;;;;;;11.95;7.00;;;;;;;22.72;49.90;99309.06;7237401;40;20249;31
2023/07/08 06:05:50;;;;;;;11.45;7.20;;;;;;;22.62;52.64;99338.19;7254314;40;20316;31
2023/07/08 06:11:21;;;;;;;11.02;6.43;;;;;;;22.23;54.35;99331.53;7256026;40;20447;31
2023/07/08 06:16:55;;;;;;;9.75;5.95;;;;;;;22.26;54.91;99328.28;7207715;40;20254;31
2023/07/08 06:22:28;;;;;;;9.63;5.85;;;;;;;22.33;53.92;99310.62;7195349;40;20281;31
2023/07/08 06:28:03;;;;;;;6.50;5.25;;;;;;;22.33;54.21;99304.31;7171093;40;20261;31
2023/07/08 06:38:40;;;;;;;8.13;5.10;;;;;;;22.58;54.43;99279.31;7238726;40;21456;31
2023/07/08 06:49:02;;;;;;;9.32;5.18;;;;;;;23.10;55.01;99283.72;7234487;40;21440;31
2023/07/08 06:54:50;;;;;;;6.53;4.90;;;;;;;23.34;55.44;99289.94;7195051;40;21299;31
2023/07/08 07:00:25;;;;;;;7.80;4.65;;;;;;;23.73;54.98;99283.53;7170864;40;20258;31
2023/07/08 07:06:00;;;;;;;9.80;3.90;;;;;;;24.11;54.97;99276.41;7141364;40;20243;31
2023/07/08 07:11:36;;;;;;;8.23;3.97;;;;;;;24.35;54.61;99263.28;7147492;40;20277;31
2023/07/08 07:16:56;;;;;;;7.27;3.70;;;;;;;24.43;54.54;99260.09;7176716;40;20258;31
2023/07/08 07:22:31;;;;;;;8.77;4.00;;;;;;;24.46;55.07;99263.16;7200826;40;20264;31
2023/07/08 07:28:04;;;;;;;5.93;3.87;;;;;;;24.51;55.49;99262.41;7194389;40;20262;31
2023/07/08 07:33:39;;;;;;;6.30;3.95;;;;;;;24.55;54.62;99280.94;7194432;40;20327;31
2023/07/08 07:39:14;;;;;;;6.30;3.83;;;;;;;24.58;53.81;99290.59;7234543;40;20363;31
2023/07/08 07:44:50;;;;;;;6.87;3.72;;;;;;;24.72;53.44;99288.31;7200686;40;20340;31
2023/07/08 07:50:25;;;;;;;6.23;3.60;;;;;;;24.76;53.39;99298.56;7114468;40;20282;31
2023/07/08 07:56:00;;;;;;;6.53;3.83;;;;;;;25.13;52.84;99305.16;7116753;40;20417;31
2023/07/08 08:01:36;;;;;;;8.32;3.87;;;;;;;25.34;53.63;99300.66;7104337;40;20278;31
2023/07/08 08:07:11;;;;;;;7.70;4.00;;;;;;;25.67;52.46;99294.09;7155251;40;20266;31
2023/07/08 08:17:49;;;;;;;6.68;3.46;;;;;;;26.21;50.13;99291.25;7200804;40;21296;31
2023/07/08 08:28:27;;;;;;;6.20;4.20;;;;;;;26.74;49.54;99299.31;7255596;39;20302;31
2023/07/08 08:34:03;;;;;;;6.60;3.80;;;;;;;27.10;49.12;99296.75;7234062;40;20261;31
2023/07/08 08:39:35;;;;;;;7.70;3.80;;;;;;;27.13;48.38;99308.09;7198457;40;20246;31
2023/07/08 08:45:07;;;;;;;6.00;3.73;;;;;;;27.34;49.29;99301.50;7197112;40;20254;31
2023/07/08 08:50:39;;;;;;;5.45;3.65;;;;;;;27.53;48.27;99312.94;7163969;40;20393;31
2023/07/08 08:56:11;;;;;;;5.80;3.50;;;;;;;27.66;49.08;99320.72;6934632;40;20259;31
2023/07/08 09:01:43;;;;;;;8.57;4.35;;;;;;;27.64;49.10;99311.88;7191180;40;20250;31
2023/07/08 09:07:17;;;;;;;6.70;4.17;;;;;;;27.89;48.51;99321.28;7181772;40;20277;31
2023/07/08 09:12:49;;;;;;;10.97;3.60;;;;;;;28.16;47.21;99316.34;7185939;40;20258;31
2023/07/08 09:18:26;;;;;;;6.03;3.42;;;;;;;28.37;46.78;99323.53;7243798;40;20276;31
2023/07/08 09:24:00;;;;;;;6.80;3.30;;;;;;;28.52;46.38;99325.44;7202747;40;20259;31
2023/07/08 09:29:16;;;;;;;5.03;3.28;;;;;;;28.84;45.56;99323.16;7220759;40;20257;31
2023/07/08 09:34:51;;;;;;;6.62;3.40;;;;;;;29.00;44.18;99326.72;7287601;40;20264;31
2023/07/08 09:40:29;;;;;;;9.35;3.40;;;;;;;29.04;44.73;99328.66;7190326;40;20250;31
2023/07/08 09:46:01;;;;;;;4.30;3.40;;;;;;;29.24;44.54;99326.88;7215403;40;20280;31
2023/07/08 09:51:18;;;;;;;7.80;3.18;;;;;;;29.33;42.95;99341.84;7235504;40;20257;31
2023/07/08 09:56:51;;;;;;;8.10;3.03;;;;;;;29.33;42.59;99322.41;7195865;40;20270;31
2023/07/08 10:02:32;;;;;;;4.65;3.15;;;;;;;29.44;43.44;99315.69;7222889;40;20249;31
2023/07/08 10:08:04;;;;;;;4.96;3.52;;;;;;;29.62;42.99;99316.97;7272435;39;20252;31
2023/07/08 10:13:40;;;;;;;5.20;3.00;;;;;;;29.61;41.93;99305.03;7284318;39;20264;31
2023/07/08 10:19:12;;;;;;;5.60;3.20;;;;;;;29.77;42.66;99308.53;7233648;40;20427;31
2023/07/08 10:24:43;;;;;;;4.04;3.18;;;;;;;30.01;41.61;99305.88;7231811;40;20261;31
2023/07/08 10:30:16;;;;;;;6.90;3.25;;;;;;;30.25;41.26;99302.03;7244997;40;20260;31
2023/07/08 10:35:48;;;;;;;6.32;3.50;;;;;;;30.47;40.54;99304.34;7242039;40;20295;31
2023/07/08 10:41:20;;;;;;;6.10;3.30;;;;;;;30.54;40.15;99304.00;7185994;40;20376;31
2023/07/08 10:46:52;;;;;;;3.80;2.78;;;;;;;30.60;39.66;99300.03;7160626;40;20324;31
2023/07/08 10:52:27;;;;;;;5.70;3.30;;;;;;;30.92;39.05;99300.22;7234300;40;20257;31
2023/07/08 10:58:13;;;;;;;7.94;3.00;;;;;;;31.03;39.33;99304.53;7263669;40;20284;31
2023/07/08 11:08:48;;;;;;;5.18;3.20;;;;;;;31.19;38.19;99297.66;7259949;40;20283;31
2023/07/08 11:14:18;;;;;;;4.94;3.10;;;;;;;31.50;37.44;99288.88;7214794;40;20240;31
2023/07/08 11:19:51;;;;;;;5.42;3.32;;;;;;;31.56;37.15;99284.87;7224754;40;20256;31
2023/07/08 11:25:26;;;;;;;8.35;3.20;;;;;;;31.69;37.91;99295.28;7241690;40;20268;31
2023/07/08 11:30:55;;;;;;;4.38;3.22;;;;;;;31.80;36.85;99291.22;7221599;40;20277;31
2023/07/08 11:36:30;;;;;;;5.68;3.45;;;;;;;32.04;36.27;99277.13;7178928;40;20268;31
2023/07/08 11:42:03;;;;;;;6.37;3.30;;;;;;;32.07;36.83;99274.59;7199165;40;21411;31
2023/07/08 11:47:34;;;;;;;6.20;3.10;;;;;;;31.96;36.60;99263.88;7191514;40;20261;31
2023/07/08 11:53:10;;;;;;;4.03;3.12;;;;;;;32.11;36.52;99270.06;7184847;40;20356;31
2023/07/08 11:58:45;;;;;;;5.98;3.24;;;;;;;32.13;37.19;99259.41;7251352;39;20272;31
2023/07/08 12:04:28;;;;;;;5.55;3.30;;;;;;;32.29;36.25;99253.56;7265841;40;20309;31
2023/07/08 12:15:07;;;;;;;5.45;3.40;;;;;;;32.28;35.07;99258.31;7204512;40;20353;31
2023/07/08 12:25:46;;;;;;;4.90;3.20;;;;;;;32.70;35.78;99259.19;7291381;40;20290;31
2023/07/08 12:36:21;;;;;;;4.45;3.60;;;;;;;33.04;35.44;99248.44;7281979;40;21155;31
2023/07/08 12:41:53;;;;;;;4.80;3.58;;;;;;;32.91;34.26;99252.09;7273289;40;20261;31
2023/07/08 12:47:11;;;;;;;4.90;3.30;;;;;;;33.13;34.06;99256.91;7271103;39;20245;31
2023/07/08 12:52:44;;;;;;;5.32;3.48;;;;;;;33.06;34.84;99251.72;7237743;40;20265;31
2023/07/08 12:58:18;;;;;;;6.40;3.85;;;;;;;33.19;34.13;99255.66;7211747;40;20277;31
2023/07/08 13:03:51;;;;;;;5.10;3.10;;;;;;;33.30;33.03;99248.72;7186765;40;20257;31
2023/07/08 13:09:23;;;;;;;4.40;3.30;;;;;;;33.37;33.30;99246.31;7223474;40;20261;31
2023/07/08 13:14:56;;;;;;;4.62;3.20;;;;;;;33.55;34.50;99236.94;7264995;40;20357;31
2023/07/08 13:20:25;;;;;;;6.00;3.90;;;;;;;33.63;32.90;99240.94;7193859;40;20421;31
2023/07/08 13:25:59;;;;;;;7.35;3.50;;;;;;;33.55;31.72;99236.94;7186638;40;20264;31
2023/07/08 13:31:34;;;;;;;4.80;3.55;;;;;;;33.59;32.94;99235.16;7215677;40;20262;31
2023/07/08 13:37:09;;;;;;;6.03;3.63;;;;;;;33.70;32.82;99239.37;7221469;40;20355;31
2023/07/08 13:47:47;;;;;;;6.30;3.50;;;;;;;33.64;32.42;99223.84;7246969;40;20269;31
2023/07/08 13:58:23;;;;;;;4.70;3.22;;;;;;;33.73;32.28;99221.97;7261290;40;20320;31
2023/07/08 14:04:02;;;;;;;6.55;3.42;;;;;;;33.79;32.72;99217.88;7237198;40;20263;31
2023/07/08 14:09:34;;;;;;;5.45;3.50;;;;;;;33.80;31.95;99215.91;7221263;40;20355;31
2023/07/08 14:20:14;;;;;;;4.82;3.40;;;;;;;33.61;32.48;99223.66;7249678;40;20277;31
2023/07/08 14:25:46;;;;;;;4.78;3.20;;;;;;;33.41;33.60;99223.00;7220511;40;20356;31
2023/07/08 14:31:18;;;;;;;5.40;3.20;;;;;;;33.51;32.09;99217.19;7210981;40;20281;31
2023/07/08 14:36:52;;;;;;;6.00;3.33;;;;;;;33.61;31.24;99213.31;7194668;40;20258;31
2023/07/08 14:42:27;;;;;;;5.90;3.50;;;;;;;33.63;32.37;99211.00;7133855;40;20294;31
2023/07/08 14:47:59;;;;;;;4.80;3.53;;;;;;;33.51;31.29;99216.34;7169185;40;22036;31
2023/07/08 14:53:35;;;;;;;4.18;3.35;;;;;;;33.33;31.57;99218.16;7166749;40;20274;31
2023/07/08 14:58:52;;;;;;;5.65;3.05;;;;;;;33.20;31.98;99219.03;7213360;40;21434;31
2023/07/08 15:04:22;;;;;;;6.50;3.20;;;;;;;33.37;32.17;99216.41;7228119;40;20268;31
2023/07/08 15:09:58;;;;;;;7.07;3.10;;;;;;;33.34;31.58;99219.00;7192988;40;20352;31
2023/07/08 15:15:33;;;;;;;6.50;3.40;;;;;;;33.44;31.02;99213.97;7228205;40;20268;31
2023/07/08 15:20:53;;;;;;;5.93;3.30;;;;;;;33.37;31.25;99213.59;7190930;40;20321;31
2023/07/08 15:26:24;;;;;;;6.33;3.30;;;;;;;33.39;30.17;99211.31;7010153;40;21461;31
2023/07/08 15:31:59;;;;;;;6.22;3.15;;;;;;;33.40;30.21;99200.94;7179727;40;20275;31
2023/07/08 15:37:34;;;;;;;4.60;3.12;;;;;;;33.35;31.42;99217.88;7244387;40;20268;31
2023/07/08 15:43:10;;;;;;;6.40;3.50;;;;;;;33.17;31.67;99208.50;7243606;40;20281;31
2023/07/08 15:48:27;;;;;;;4.47;3.30;;;;;;;33.17;30.91;99205.72;7232233;40;20435;31
2023/07/08 15:53:44;;;;;;;6.38;3.64;;;;;;;33.29;30.93;99203.19;7220792;40;20268;31
2023/07/08 15:59:21;;;;;;;5.68;3.22;;;;;;;33.06;31.42;99199.47;7231434;40;20277;31
2023/07/08 16:09:59;;;;;;;4.80;3.20;;;;;;;33.48;30.70;99195.44;7252008;40;20277;31
2023/07/08 16:20:36;;;;;;;4.75;3.20;;;;;;;33.56;29.04;99187.44;7279161;39;20359;31
2023/07/08 16:26:08;;;;;;;7.50;3.50;;;;;;;33.51;30.31;99193.97;7291769;39;20260;31
2023/07/08 16:31:43;;;;;;;5.24;3.00;;;;;;;33.44;30.27;99196.38;7246355;40;20279;31
2023/07/08 16:37:16;;;;;;;4.78;3.22;;;;;;;33.36;31.49;99197.12;7173576;40;20266;31
2023/07/08 16:47:55;;;;;;;6.40;3.30;;;;;;;33.24;31.90;99186.53;7175668;40;20290;31
2023/07/08 16:53:31;;;;;;;6.47;3.22;;;;;;;33.04;31.69;99181.41;7172545;40;20255;31
2023/07/08 16:58:51;;;;;;;3.95;3.00;;;;;;;32.99;33.25;99187.09;7150942;40;20373;31
2023/07/08 17:04:21;;;;;;;4.77;3.37;;;;;;;32.83;32.53;99191.34;7176071;40;21921;31
2023/07/08 17:09:57;;;;;;;6.60;3.47;;;;;;;32.60;32.73;99184.84;7179161;40;21810;31
2023/07/08 17:15:29;;;;;;;4.44;3.24;;;;;;;32.56;33.47;99192.19;7275991;39;20264;31
2023/07/08 17:21:02;;;;;;;7.40;3.40;;;;;;;32.42;32.92;99197.78;7234649;40;21446;31
2023/07/08 17:26:34;;;;;;;6.37;3.65;;;;;;;32.34;33.89;99194.88;7156851;40;20266;31
2023/07/08 17:32:06;;;;;;;8.45;3.30;;;;;;;32.24;33.49;99200.66;7180845;40;20380;31
2023/07/08 17:37:23;;;;;;;7.03;3.47;;;;;;;32.17;34.44;99204.66;7234934;40;20273;31
2023/07/08 17:42:54;;;;;;;5.50;3.70;;;;;;;32.11;34.66;99203.13;7267496;40;20264;31
2023/07/08 17:48:24;;;;;;;6.82;3.83;;;;;;;32.10;34.39;99211.78;7200814;40;20381;31
2023/07/08 17:53:59;;;;;;;5.17;3.33;;;;;;;31.97;35.05;99210.59;7189098;40;20548;31
2023/07/08 18:04:37;;;;;;;5.87;3.28;;;;;;;31.75;35.19;99224.37;7252839;39;20294;31
2023/07/08 18:14:59;;;;;;;6.18;3.50;;;;;;;31.89;36.08;99239.19;7293067;39;20260;31
2023/07/08 18:25:35;;;;;;;6.97;3.80;;;;;;;31.63;37.17;99243.53;7326154;39;20248;31
2023/07/08 18:30:55;;;;;;;7.05;3.45;;;;;;;31.43;38.54;99244.66;7292221;39;20341;31
2023/07/08 18:36:27;;;;;;;5.30;3.80;;;;;;;31.16;39.00;99262.03;7284013;39;20264;31
2023/07/08 18:41:59;;;;;;;5.03;3.50;;;;;;;31.02;37.50;99274.22;7214067;40;20280;31
2023/07/08 18:47:31;;;;;;;6.10;3.20;;;;;;;30.73;36.89;99283.44;7151321;40;20258;31
2023/07/08 18:53:04;;;;;;;8.27;3.40;;;;;;;30.63;37.51;99268.84;7213285;40;21951;31
2023/07/08 18:58:36;;;;;;;6.50;3.46;;;;;;;30.54;37.97;99282.53;7203182;40;20366;31
2023/07/08 19:04:11;;;;;;;7.18;3.95;;;;;;;30.38;37.73;99293.00;7192409;40;20347;31
2023/07/08 19:09:33;;;;;;;5.52;3.76;;;;;;;30.28;38.29;99287.50;7174214;40;20266;31
2023/07/08 19:15:07;;;;;;;7.24;3.42;;;;;;;30.12;38.88;99296.31;7155792;40;20262;31
2023/07/08 19:20:41;;;;;;;5.87;3.80;;;;;;;30.01;39.48;99292.81;7196930;40;20281;31
2023/07/08 19:25:58;;;;;;;6.18;3.80;;;;;;;29.91;39.13;99290.09;7178244;40;20269;31
2023/07/08 19:31:32;;;;;;;5.30;3.70;;;;;;;29.71;39.14;99293.81;7226159;40;20332;31
2023/07/08 19:37:05;;;;;;;4.65;3.33;;;;;;;29.55;39.42;99295.06;7272355;40;21298;31
2023/07/08 19:42:37;;;;;;;6.62;3.97;;;;;;;29.44;40.02;99310.16;7250087;40;20256;31
2023/07/08 19:48:13;;;;;;;6.03;3.85;;;;;;;29.29;42.02;99324.06;7216347;40;20261;31
2023/07/08 19:53:45;;;;;;;5.80;4.52;;;;;;;29.12;42.08;99330.81;7154373;40;20317;31
2023/07/08 19:59:17;;;;;;;8.94;4.52;;;;;;;28.92;42.98;99342.00;7162767;40;20343;31
2023/07/08 20:04:50;;;;;;;7.87;3.85;;;;;;;28.71;42.13;99347.88;7210442;40;20272;31
2023/07/08 20:10:23;;;;;;;6.25;4.15;;;;;;;28.54;44.32;99351.78;7194151;40;21236;31
2023/07/08 20:15:58;;;;;;;7.93;4.10;;;;;;;28.23;44.62;99364.00;7214463;40;21313;31
2023/07/08 20:21:34;;;;;;;6.40;4.18;;;;;;;28.09;45.28;99365.62;7215708;40;20355;31
2023/07/08 20:27:06;;;;;;;6.72;4.05;;;;;;;28.02;45.27;99368.69;7172957;40;20253;31
2023/07/08 20:32:38;;;;;;;4.95;4.40;;;;;;;27.96;45.48;99364.25;7176444;40;20266;31
2023/07/08 20:38:11;;;;;;;5.50;4.35;;;;;;;27.78;46.18;99370.31;7200301;40;20358;31
2023/07/08 20:43:28;;;;;;;5.32;4.12;;;;;;;27.63;46.08;99376.69;7205068;40;20282;31
2023/07/08 20:49:01;;;;;;;6.68;3.95;;;;;;;27.54;46.82;99367.22;7217580;40;20339;31
2023/07/08 20:54:35;;;;;;;7.65;3.90;;;;;;;27.46;46.31;99372.44;7204290;40;20276;31
2023/07/08 20:59:52;;;;;;;7.70;4.25;;;;;;;27.38;47.07;99376.56;7189186;40;20351;31
2023/07/08 21:05:12;;;;;;;9.33;3.90;;;;;;;27.26;46.38;99384.25;7215378;40;20257;31
2023/07/08 21:10:42;;;;;;;8.20;3.90;;;;;;;27.11;47.00;99379.50;7240579;40;20260;31
2023/07/08 21:16:14;;;;;;;7.12;4.30;;;;;;;27.03;46.99;99371.69;7183094;40;20276;31
2023/07/08 21:21:33;;;;;;;6.72;3.98;;;;;;;26.90;46.57;99367.50;7193923;40;20246;31
2023/07/08 21:27:08;;;;;;;5.70;3.65;;;;;;;26.68;47.88;99368.72;7217223;40;20275;31
2023/07/08 21:32:25;;;;;;;7.25;3.97;;;;;;;26.68;47.38;99368.72;7203906;40;21532;31
2023/07/08 21:43:06;;;;;;;5.18;3.58;;;;;;;26.48;47.76;99372.19;7248890;39;20284;31
2023/07/08 21:48:23;;;;;;;5.97;4.28;;;;;;;26.39;47.96;99373.78;7281548;39;20244;31
2023/07/08 21:53:58;;;;;;;7.60;3.90;;;;;;;26.34;48.09;99380.09;7298243;39;20256;31
2023/07/08 21:59:37;;;;;;;6.37;3.90;;;;;;;26.25;47.91;99378.06;7238702;40;20332;31
2023/07/08 22:04:55;;;;;;;7.23;4.10;;;;;;;26.13;48.76;99380.16;7263140;40;20249;31
2023/07/08 22:10:30;;;;;;;8.27;4.07;;;;;;;25.91;49.58;99380.25;7046075;40;20221;31
2023/07/08 22:16:02;;;;;;;5.20;3.16;;;;;;;25.81;49.41;99383.72;7234427;40;20389;31
2023/07/08 22:21:34;;;;;;;6.30;3.60;;;;;;;25.73;49.95;99380.59;7234377;40;20277;31
2023/07/08 22:26:51;;;;;;;5.25;3.90;;;;;;;25.67;49.38;99388.00;7185682;40;20252;31
2023/07/08 22:32:27;;;;;;;9.45;5.80;;;;;;;25.29;50.00;99396.38;7212467;40;20346;31
2023/07/08 22:38:02;;;;;;;9.13;4.93;;;;;;;25.09;50.58;99391.44;7274039;40;20503;31
2023/07/08 22:43:37;;;;;;;9.15;4.20;;;;;;;25.13;50.04;99376.03;7246223;40;20283;31
2023/07/08 22:49:12;;;;;;;7.18;3.70;;;;;;;25.13;49.88;99379.62;7215308;40;20278;31
2023/07/08 22:54:45;;;;;;;5.20;3.45;;;;;;;25.05;50.81;99387.53;7158798;40;20262;31
2023/07/08 23:00:21;;;;;;;5.07;3.47;;;;;;;25.11;49.48;99392.84;7169196;40;20269;31
2023/07/08 23:05:54;;;;;;;7.12;3.97;;;;;;;25.19;49.46;99390.75;7140851;40;20275;31
2023/07/08 23:16:34;;;;;;;7.60;3.47;;;;;;;24.96;50.64;99389.91;7211872;40;20285;31
2023/07/08 23:22:07;;;;;;;5.45;3.40;;;;;;;24.83;50.35;99389.41;7215650;40;20405;31
2023/07/08 23:27:42;;;;;;;5.47;3.55;;;;;;;24.75;49.70;99398.09;7255763;40;20511;31
2023/07/08 23:33:03;;;;;;;7.93;3.28;;;;;;;24.69;49.74;99399.94;7252315;40;20426;31
2023/07/08 23:38:36;;;;;;;5.22;3.10;;;;;;;24.65;49.54;99399.63;7284768;40;20334;31
2023/07/08 23:44:11;;;;;;;5.20;3.25;;;;;;;24.73;50.12;99400.28;7224878;40;20364;31
2023/07/08 23:54:49;;;;;;;6.30;3.70;;;;;;;24.52;51.09;99402.72;7251468;40;20281;31
